Ana Sayfa
METAR-TAF:

METAR-TAF

Havaalanları :

Homer, Alaska, Amerika Birleşik Devletleri

Enlem: 59-39N, Boylam: 151-29W, yükseklik: 26 m

Güncel hava durumu gözlemi

Rapor saat 06:53 UTC de 1 saat ve 5 dakika önce yapıldı.
Rüzgar güneybatıdan 3 kt
Sıcaklık 12°C
Nem 76%
Basınç 1021 hPa
Görüş mesafesi: 16.1 km
3100 ft yükseklikte az bulutlu
4500 ft yükseklikte çok bulutlu

METAR: PAHO 190653Z AUTO 22003KT 10SM FEW031 OVC045 12/08 A3015 RMK AO2 SLP209 T01220083 TSNO

Saat: 23:58 (07:58 UTC)

Tahmin

Rapor saat 05:30 UTC de 2 saat ve 28 dakika önce yapıldı.
Ayın 19'si saat 06 UTC'den ayın 20'si saat 06 UTC'ye kadar geçerli Tahmin
Rüzgar değişken yönden 3 kt
Görüş mesafesi: 10 km
5000 ft yükseklikte çok bulutlu
Ayın 19'si saat 2100 UTC'den
Rüzgar batı/güneybatıdan 8 kt
Görüş mesafesi: 10 km
8000 ft yükseklikte az bulutlu
15000 ft yükseklikte parçalı bulutlu

TAF: PAHO 190530Z 1906/2006 VRB03KT P6SM OVC050 FM192100 25008KT P6SM FEW080 SCT150

4.000'den fazla havaalanı için hava durumu gözlemleri ve tahminleri (METAR ve TAF raporları).

Kullanılabilir istasyonlar harita üzerinde sarı ve kırmızı noktalarla gösterilir.

İstasyonun adını görmek için fareyi noktanın üzerinde gezdirin.

Sonrasında hava gözlem ve tahminlerini görmek için tıklayın.

Haritayı değiştirmek için: yaklaştırmak için siyah artı işaretli yeşil düğmeye ve uzaklaştırmak için de eksi işaretli düğmeye hızla tıklayın; bitişik haritalar için yeşil okları kullanın.


METAR-TAF: